sensor_id;sensor_type;location;lat;lon;timestamp;temperature;humidity
41664;DHT22;27353;50.906;7.248;2022-08-16T00:00:23;18.30;99.90
41664;DHT22;27353;50.906;7.248;2022-08-16T00:02:49;18.40;99.90
41664;DHT22;27353;50.906;7.248;2022-08-16T00:05:15;18.30;99.90
41664;DHT22;27353;50.906;7.248;2022-08-16T00:07:41;18.30;99.90
41664;DHT22;27353;50.906;7.248;2022-08-16T00:10:10;18.30;99.90
41664;DHT22;27353;50.906;7.248;2022-08-16T00:12:36;18.20;99.90
41664;DHT22;27353;50.906;7.248;2022-08-16T00:15:10;18.20;99.90
41664;DHT22;27353;50.906;7.248;2022-08-16T00:17:36;18.10;99.90
41664;DHT22;27353;50.906;7.248;2022-08-16T00:20:03;18.10;99.90
41664;DHT22;27353;50.906;7.248;2022-08-16T00:22:33;18.10;99.90
41664;DHT22;27353;50.906;7.248;2022-08-16T00:24:59;18.00;99.90
41664;DHT22;27353;50.906;7.248;2022-08-16T00:27:24;18.10;99.90
41664;DHT22;27353;50.906;7.248;2022-08-16T00:29:50;18.00;99.90
41664;DHT22;27353;50.906;7.248;2022-08-16T00:32:17;18.00;99.90
41664;DHT22;27353;50.906;7.248;2022-08-16T00:34:43;18.00;99.90
41664;DHT22;27353;50.906;7.248;2022-08-16T00:37:09;18.00;99.90
41664;DHT22;27353;50.906;7.248;2022-08-16T00:39:34;18.00;99.90
41664;DHT22;27353;50.906;7.248;2022-08-16T00:42:00;18.00;99.90
41664;DHT22;27353;50.906;7.248;2022-08-16T00:44:26;17.90;99.90
41664;DHT22;27353;50.906;7.248;2022-08-16T00:46:57;18.00;99.90
41664;DHT22;27353;50.906;7.248;2022-08-16T00:49:26;17.90;99.90
41664;DHT22;27353;50.906;7.248;2022-08-16T00:51:52;17.90;99.90
41664;DHT22;27353;50.906;7.248;2022-08-16T00:54:19;17.90;99.90
41664;DHT22;27353;50.906;7.248;2022-08-16T00:56:48;17.90;99.90
41664;DHT22;27353;50.906;7.248;2022-08-16T00:59:15;17.90;99.90
41664;DHT22;27353;50.906;7.248;2022-08-16T01:01:42;17.80;99.90
41664;DHT22;27353;50.906;7.248;2022-08-16T01:04:10;17.80;99.90
41664;DHT22;27353;50.906;7.248;2022-08-16T01:06:36;17.90;99.90
41664;DHT22;27353;50.906;7.248;2022-08-16T01:09:04;17.90;99.90
41664;DHT22;27353;50.906;7.248;2022-08-16T01:11:32;17.80;99.90
41664;DHT22;27353;50.906;7.248;2022-08-16T01:14:17;17.70;99.90
41664;DHT22;27353;50.906;7.248;2022-08-16T01:16:45;17.70;99.90
41664;DHT22;27353;50.906;7.248;2022-08-16T01:19:34;17.70;99.90
41664;DHT22;27353;50.906;7.248;2022-08-16T01:22:05;17.70;99.90
41664;DHT22;27353;50.906;7.248;2022-08-16T01:24:37;17.70;99.90
41664;DHT22;27353;50.906;7.248;2022-08-16T01:27:14;17.80;99.90
41664;DHT22;27353;50.906;7.248;2022-08-16T01:32:18;17.80;99.90
41664;DHT22;27353;50.906;7.248;2022-08-16T01:34:44;17.70;99.90
41664;DHT22;27353;50.906;7.248;2022-08-16T01:37:11;17.60;99.90
41664;DHT22;27353;50.906;7.248;2022-08-16T01:39:37;17.60;99.90
41664;DHT22;27353;50.906;7.248;2022-08-16T01:42:04;17.60;99.90
41664;DHT22;27353;50.906;7.248;2022-08-16T01:44:32;17.60;99.90
41664;DHT22;27353;50.906;7.248;2022-08-16T01:46:58;17.60;99.90
41664;DHT22;27353;50.906;7.248;2022-08-16T01:49:27;17.70;99.90
41664;DHT22;27353;50.906;7.248;2022-08-16T01:51:59;17.70;99.90
41664;DHT22;27353;50.906;7.248;2022-08-16T01:54:25;17.70;99.90
41664;DHT22;27353;50.906;7.248;2022-08-16T01:56:52;17.70;99.90
41664;DHT22;27353;50.906;7.248;2022-08-16T01:59:18;17.70;99.90
41664;DHT22;27353;50.906;7.248;2022-08-16T02:01:45;17.70;99.90
41664;DHT22;27353;50.906;7.248;2022-08-16T02:04:11;17.70;99.90
41664;DHT22;27353;50.906;7.248;2022-08-16T02:06:37;17.70;99.90
41664;DHT22;27353;50.906;7.248;2022-08-16T02:09:07;17.60;99.90
41664;DHT22;27353;50.906;7.248;2022-08-16T02:11:35;17.70;99.90
41664;DHT22;27353;50.906;7.248;2022-08-16T02:14:01;17.60;99.90
41664;DHT22;27353;50.906;7.248;2022-08-16T02:16:27;17.50;99.90
41664;DHT22;27353;50.906;7.248;2022-08-16T02:18:52;17.50;99.90
41664;DHT22;27353;50.906;7.248;2022-08-16T02:21:18;17.50;99.90
41664;DHT22;27353;50.906;7.248;2022-08-16T02:23:45;17.50;99.90
41664;DHT22;27353;50.906;7.248;2022-08-16T02:26:11;17.50;99.90
41664;DHT22;27353;50.906;7.248;2022-08-16T02:28:37;17.50;99.90
41664;DHT22;27353;50.906;7.248;2022-08-16T02:31:06;17.50;99.90
41664;DHT22;27353;50.906;7.248;2022-08-16T02:33:33;17.50;99.90
41664;DHT22;27353;50.906;7.248;2022-08-16T02:35:58;17.50;99.90
41664;DHT22;27353;50.906;7.248;2022-08-16T02:38:25;17.40;99.90
41664;DHT22;27353;50.906;7.248;2022-08-16T02:40:51;17.40;99.90
41664;DHT22;27353;50.906;7.248;2022-08-16T02:43:16;17.30;99.90
41664;DHT22;27353;50.906;7.248;2022-08-16T02:45:42;17.40;99.90
41664;DHT22;27353;50.906;7.248;2022-08-16T02:48:08;17.20;99.90
41664;DHT22;27353;50.906;7.248;2022-08-16T02:50:35;17.20;99.90
41664;DHT22;27353;50.906;7.248;2022-08-16T02:53:00;17.20;99.90
41664;DHT22;27353;50.906;7.248;2022-08-16T02:55:26;17.10;99.90
41664;DHT22;27353;50.906;7.248;2022-08-16T02:57:52;17.10;99.90
41664;DHT22;27353;50.906;7.248;2022-08-16T03:00:17;17.10;99.90
41664;DHT22;27353;50.906;7.248;2022-08-16T03:02:44;17.10;99.90
41664;DHT22;27353;50.906;7.248;2022-08-16T03:05:12;17.00;99.90
41664;DHT22;27353;50.906;7.248;2022-08-16T03:07:39;17.00;99.90
41664;DHT22;27353;50.906;7.248;2022-08-16T03:10:07;17.00;99.90
41664;DHT22;27353;50.906;7.248;2022-08-16T03:12:34;17.00;99.90
41664;DHT22;27353;50.906;7.248;2022-08-16T03:14:59;17.00;99.90
41664;DHT22;27353;50.906;7.248;2022-08-16T03:17:25;17.00;99.90
41664;DHT22;27353;50.906;7.248;2022-08-16T03:19:51;17.00;99.90
41664;DHT22;27353;50.906;7.248;2022-08-16T03:22:19;16.90;99.90
41664;DHT22;27353;50.906;7.248;2022-08-16T03:24:45;16.90;99.90
41664;DHT22;27353;50.906;7.248;2022-08-16T03:27:10;17.00;99.90
41664;DHT22;27353;50.906;7.248;2022-08-16T03:29:36;17.00;99.90
41664;DHT22;27353;50.906;7.248;2022-08-16T03:32:02;17.00;99.90
41664;DHT22;27353;50.906;7.248;2022-08-16T03:34:29;17.00;99.90
41664;DHT22;27353;50.906;7.248;2022-08-16T03:36:56;16.90;99.90
41664;DHT22;27353;50.906;7.248;2022-08-16T03:39:22;16.80;99.90
41664;DHT22;27353;50.906;7.248;2022-08-16T03:41:48;16.80;99.90
41664;DHT22;27353;50.906;7.248;2022-08-16T03:44:14;16.80;99.90
41664;DHT22;27353;50.906;7.248;2022-08-16T03:46:40;16.80;99.90
41664;DHT22;27353;50.906;7.248;2022-08-16T03:49:05;16.80;99.90
41664;DHT22;27353;50.906;7.248;2022-08-16T03:51:33;16.80;99.90
41664;DHT22;27353;50.906;7.248;2022-08-16T03:53:59;16.80;99.90
41664;DHT22;27353;50.906;7.248;2022-08-16T03:56:24;16.90;99.90
41664;DHT22;27353;50.906;7.248;2022-08-16T03:58:51;16.80;99.90
41664;DHT22;27353;50.906;7.248;2022-08-16T04:01:18;16.80;99.90
41664;DHT22;27353;50.906;7.248;2022-08-16T04:03:44;16.80;99.90
41664;DHT22;27353;50.906;7.248;2022-08-16T04:06:10;16.80;99.90
41664;DHT22;27353;50.906;7.248;2022-08-16T04:08:35;16.70;99.90
41664;DHT22;27353;50.906;7.248;2022-08-16T04:11:01;16.80;99.90
41664;DHT22;27353;50.906;7.248;2022-08-16T04:13:28;16.70;99.90
41664;DHT22;27353;50.906;7.248;2022-08-16T04:15:55;16.70;99.90
41664;DHT22;27353;50.906;7.248;2022-08-16T04:18:27;16.70;99.90
41664;DHT22;27353;50.906;7.248;2022-08-16T04:20:53;16.70;99.90
41664;DHT22;27353;50.906;7.248;2022-08-16T04:23:19;16.70;99.90
41664;DHT22;27353;50.906;7.248;2022-08-16T04:25:45;16.70;99.90
41664;DHT22;27353;50.906;7.248;2022-08-16T04:28:11;16.70;99.90
41664;DHT22;27353;50.906;7.248;2022-08-16T04:30:37;16.70;99.90
41664;DHT22;27353;50.906;7.248;2022-08-16T04:33:04;16.80;99.90
41664;DHT22;27353;50.906;7.248;2022-08-16T04:35:31;16.80;99.90
41664;DHT22;27353;50.906;7.248;2022-08-16T04:37:57;16.90;99.90
41664;DHT22;27353;50.906;7.248;2022-08-16T04:40:24;16.90;99.90
41664;DHT22;27353;50.906;7.248;2022-08-16T04:42:50;16.90;99.90
41664;DHT22;27353;50.906;7.248;2022-08-16T04:45:16;16.90;99.90
41664;DHT22;27353;50.906;7.248;2022-08-16T04:47:42;16.90;99.90
41664;DHT22;27353;50.906;7.248;2022-08-16T04:50:15;17.00;99.90
41664;DHT22;27353;50.906;7.248;2022-08-16T04:52:44;17.00;99.90
41664;DHT22;27353;50.906;7.248;2022-08-16T04:55:16;17.10;99.90
41664;DHT22;27353;50.906;7.248;2022-08-16T04:57:42;17.10;99.90
41664;DHT22;27353;50.906;7.248;2022-08-16T05:00:11;17.20;99.90
41664;DHT22;27353;50.906;7.248;2022-08-16T05:02:38;17.20;99.90
41664;DHT22;27353;50.906;7.248;2022-08-16T05:05:04;17.30;99.90
41664;DHT22;27353;50.906;7.248;2022-08-16T05:07:30;17.40;99.90
41664;DHT22;27353;50.906;7.248;2022-08-16T05:09:56;17.50;99.90
41664;DHT22;27353;50.906;7.248;2022-08-16T05:12:21;17.60;99.90
41664;DHT22;27353;50.906;7.248;2022-08-16T05:14:47;17.80;99.90
41664;DHT22;27353;50.906;7.248;2022-08-16T05:17:13;17.90;99.90
41664;DHT22;27353;50.906;7.248;2022-08-16T05:19:38;18.20;99.90
41664;DHT22;27353;50.906;7.248;2022-08-16T05:22:04;18.50;99.90
41664;DHT22;27353;50.906;7.248;2022-08-16T05:24:30;18.90;99.90
41664;DHT22;27353;50.906;7.248;2022-08-16T05:26:55;19.20;99.90
41664;DHT22;27353;50.906;7.248;2022-08-16T05:29:21;19.50;99.90
41664;DHT22;27353;50.906;7.248;2022-08-16T05:31:47;19.80;99.90
41664;DHT22;27353;50.906;7.248;2022-08-16T05:34:13;20.10;99.90
41664;DHT22;27353;50.906;7.248;2022-08-16T05:36:38;20.30;99.90
41664;DHT22;27353;50.906;7.248;2022-08-16T05:39:06;20.40;99.90
41664;DHT22;27353;50.906;7.248;2022-08-16T05:41:32;20.60;99.90
41664;DHT22;27353;50.906;7.248;2022-08-16T05:43:57;20.50;99.90
41664;DHT22;27353;50.906;7.248;2022-08-16T05:46:25;20.70;99.90
41664;DHT22;27353;50.906;7.248;2022-08-16T05:48:50;20.90;99.90
41664;DHT22;27353;50.906;7.248;2022-08-16T05:51:16;21.50;99.90
41664;DHT22;27353;50.906;7.248;2022-08-16T05:53:42;21.70;99.90
41664;DHT22;27353;50.906;7.248;2022-08-16T05:56:08;22.00;99.90
41664;DHT22;27353;50.906;7.248;2022-08-16T05:58:34;22.30;99.90
41664;DHT22;27353;50.906;7.248;2022-08-16T06:00:59;22.10;99.90
41664;DHT22;27353;50.906;7.248;2022-08-16T06:03:25;22.00;99.90
41664;DHT22;27353;50.906;7.248;2022-08-16T06:05:51;22.10;99.90
41664;DHT22;27353;50.906;7.248;2022-08-16T06:08:16;22.20;99.90
41664;DHT22;27353;50.906;7.248;2022-08-16T06:10:42;22.70;99.90
41664;DHT22;27353;50.906;7.248;2022-08-16T06:13:07;23.40;99.90
41664;DHT22;27353;50.906;7.248;2022-08-16T06:15:33;23.60;99.90
41664;DHT22;27353;50.906;7.248;2022-08-16T06:17:59;24.30;99.90
41664;DHT22;27353;50.906;7.248;2022-08-16T06:20:27;24.20;99.90
41664;DHT22;27353;50.906;7.248;2022-08-16T06:22:55;24.50;99.90
41664;DHT22;27353;50.906;7.248;2022-08-16T06:25:21;24.30;99.90
41664;DHT22;27353;50.906;7.248;2022-08-16T06:27:47;24.70;99.90
41664;DHT22;27353;50.906;7.248;2022-08-16T06:30:13;24.90;99.90
41664;DHT22;27353;50.906;7.248;2022-08-16T06:32:39;25.00;99.90
41664;DHT22;27353;50.906;7.248;2022-08-16T06:35:06;25.50;99.90
41664;DHT22;27353;50.906;7.248;2022-08-16T06:37:31;26.00;99.90
41664;DHT22;27353;50.906;7.248;2022-08-16T06:39:57;26.20;99.90
41664;DHT22;27353;50.906;7.248;2022-08-16T06:42:23;26.50;99.90
41664;DHT22;27353;50.906;7.248;2022-08-16T06:44:49;26.00;99.90
41664;DHT22;27353;50.906;7.248;2022-08-16T06:47:15;26.80;99.90
41664;DHT22;27353;50.906;7.248;2022-08-16T06:49:41;27.00;99.90
41664;DHT22;27353;50.906;7.248;2022-08-16T06:52:06;27.10;99.90
41664;DHT22;27353;50.906;7.248;2022-08-16T06:54:34;27.30;99.90
41664;DHT22;27353;50.906;7.248;2022-08-16T06:56:59;27.90;99.90
41664;DHT22;27353;50.906;7.248;2022-08-16T06:59:25;27.60;99.90
41664;DHT22;27353;50.906;7.248;2022-08-16T07:01:51;28.10;99.50
41664;DHT22;27353;50.906;7.248;2022-08-16T07:04:17;27.40;99.90
41664;DHT22;27353;50.906;7.248;2022-08-16T07:06:43;28.30;99.60
41664;DHT22;27353;50.906;7.248;2022-08-16T07:09:11;28.40;99.00
41664;DHT22;27353;50.906;7.248;2022-08-16T07:11:37;28.40;99.10
41664;DHT22;27353;50.906;7.248;2022-08-16T07:14:02;27.70;99.20
41664;DHT22;27353;50.906;7.248;2022-08-16T07:16:28;28.60;98.50
41664;DHT22;27353;50.906;7.248;2022-08-16T07:18:54;29.30;98.10
41664;DHT22;27353;50.906;7.248;2022-08-16T07:21:20;29.90;96.80
41664;DHT22;27353;50.906;7.248;2022-08-16T07:23:46;29.90;95.40
41664;DHT22;27353;50.906;7.248;2022-08-16T07:26:23;30.00;95.50
41664;DHT22;27353;50.906;7.248;2022-08-16T07:28:50;30.00;94.90
41664;DHT22;27353;50.906;7.248;2022-08-16T07:31:17;29.90;95.20
41664;DHT22;27353;50.906;7.248;2022-08-16T07:33:43;30.40;94.70
41664;DHT22;27353;50.906;7.248;2022-08-16T07:36:10;31.10;93.90
41664;DHT22;27353;50.906;7.248;2022-08-16T07:38:37;31.30;93.00
41664;DHT22;27353;50.906;7.248;2022-08-16T07:41:03;31.10;92.40
41664;DHT22;27353;50.906;7.248;2022-08-16T07:43:30;31.40;92.40
41664;DHT22;27353;50.906;7.248;2022-08-16T07:45:56;31.90;91.40
41664;DHT22;27353;50.906;7.248;2022-08-16T07:48:21;32.30;91.00
41664;DHT22;27353;50.906;7.248;2022-08-16T07:50:47;32.60;89.60
41664;DHT22;27353;50.906;7.248;2022-08-16T07:53:13;33.10;89.00
41664;DHT22;27353;50.906;7.248;2022-08-16T07:55:39;32.60;89.30
41664;DHT22;27353;50.906;7.248;2022-08-16T07:58:05;32.50;87.50
41664;DHT22;27353;50.906;7.248;2022-08-16T08:00:32;32.70;89.40
41664;DHT22;27353;50.906;7.248;2022-08-16T08:02:58;31.90;89.30
41664;DHT22;27353;50.906;7.248;2022-08-16T08:05:25;32.40;89.90
41664;DHT22;27353;50.906;7.248;2022-08-16T08:07:51;32.40;88.00
41664;DHT22;27353;50.906;7.248;2022-08-16T08:10:21;32.80;87.70
41664;DHT22;27353;50.906;7.248;2022-08-16T08:12:48;33.40;84.80
41664;DHT22;27353;50.906;7.248;2022-08-16T08:15:15;33.60;83.70
41664;DHT22;27353;50.906;7.248;2022-08-16T08:17:41;33.40;83.60
41664;DHT22;27353;50.906;7.248;2022-08-16T08:20:09;34.00;82.40
41664;DHT22;27353;50.906;7.248;2022-08-16T08:22:36;32.80;83.10
41664;DHT22;27353;50.906;7.248;2022-08-16T08:25:05;33.10;82.80
41664;DHT22;27353;50.906;7.248;2022-08-16T08:27:31;32.30;84.70
41664;DHT22;27353;50.906;7.248;2022-08-16T08:29:56;33.10;83.50
41664;DHT22;27353;50.906;7.248;2022-08-16T08:32:23;33.30;84.40
41664;DHT22;27353;50.906;7.248;2022-08-16T08:34:49;34.50;80.60
41664;DHT22;27353;50.906;7.248;2022-08-16T08:37:15;35.30;77.30
41664;DHT22;27353;50.906;7.248;2022-08-16T08:39:41;35.70;77.40
41664;DHT22;27353;50.906;7.248;2022-08-16T08:42:07;36.10;75.90
41664;DHT22;27353;50.906;7.248;2022-08-16T08:44:33;36.10;76.40
41664;DHT22;27353;50.906;7.248;2022-08-16T08:47:01;36.30;75.40
41664;DHT22;27353;50.906;7.248;2022-08-16T08:49:31;37.10;73.10
41664;DHT22;27353;50.906;7.248;2022-08-16T08:51:56;37.50;71.50
41664;DHT22;27353;50.906;7.248;2022-08-16T08:54:23;36.50;70.00
41664;DHT22;27353;50.906;7.248;2022-08-16T08:56:51;35.90;71.10
41664;DHT22;27353;50.906;7.248;2022-08-16T08:59:16;36.20;71.30
41664;DHT22;27353;50.906;7.248;2022-08-16T09:01:42;35.70;72.70
41664;DHT22;27353;50.906;7.248;2022-08-16T09:04:08;35.70;71.40
41664;DHT22;27353;50.906;7.248;2022-08-16T09:06:34;35.90;71.60
41664;DHT22;27353;50.906;7.248;2022-08-16T09:09:00;35.80;70.60
41664;DHT22;27353;50.906;7.248;2022-08-16T09:11:26;35.40;71.50
41664;DHT22;27353;50.906;7.248;2022-08-16T09:13:52;35.50;71.70
41664;DHT22;27353;50.906;7.248;2022-08-16T09:16:18;34.50;71.20
41664;DHT22;27353;50.906;7.248;2022-08-16T09:18:45;34.30;73.10
41664;DHT22;27353;50.906;7.248;2022-08-16T09:21:11;33.90;73.70
41664;DHT22;27353;50.906;7.248;2022-08-16T09:23:38;33.80;74.90
41664;DHT22;27353;50.906;7.248;2022-08-16T09:26:05;34.00;73.90
41664;DHT22;27353;50.906;7.248;2022-08-16T09:28:33;34.00;73.50
41664;DHT22;27353;50.906;7.248;2022-08-16T09:30:58;33.60;75.40
41664;DHT22;27353;50.906;7.248;2022-08-16T09:33:24;33.60;74.60
41664;DHT22;27353;50.906;7.248;2022-08-16T09:35:50;33.70;75.30
41664;DHT22;27353;50.906;7.248;2022-08-16T09:38:16;33.70;73.80
41664;DHT22;27353;50.906;7.248;2022-08-16T09:40:43;33.90;73.70
41664;DHT22;27353;50.906;7.248;2022-08-16T09:43:10;33.90;73.70
41664;DHT22;27353;50.906;7.248;2022-08-16T09:45:36;32.90;78.30
41664;DHT22;27353;50.906;7.248;2022-08-16T09:48:07;33.50;77.50
41664;DHT22;27353;50.906;7.248;2022-08-16T09:50:33;32.70;75.70
41664;DHT22;27353;50.906;7.248;2022-08-16T09:53:01;31.30;77.60
41664;DHT22;27353;50.906;7.248;2022-08-16T09:55:27;31.30;79.40
41664;DHT22;27353;50.906;7.248;2022-08-16T09:57:52;32.00;78.70
41664;DHT22;27353;50.906;7.248;2022-08-16T10:00:18;32.50;76.80
41664;DHT22;27353;50.906;7.248;2022-08-16T10:02:43;32.60;75.90
41664;DHT22;27353;50.906;7.248;2022-08-16T10:05:10;32.70;77.80
41664;DHT22;27353;50.906;7.248;2022-08-16T10:07:35;32.60;76.70
41664;DHT22;27353;50.906;7.248;2022-08-16T10:10:02;33.10;76.10
41664;DHT22;27353;50.906;7.248;2022-08-16T10:12:28;32.60;76.70
41664;DHT22;27353;50.906;7.248;2022-08-16T10:15:15;32.40;75.50
41664;DHT22;27353;50.906;7.248;2022-08-16T10:17:44;32.60;75.80
41664;DHT22;27353;50.906;7.248;2022-08-16T10:20:10;33.30;74.80
41664;DHT22;27353;50.906;7.248;2022-08-16T10:22:37;33.20;75.20
41664;DHT22;27353;50.906;7.248;2022-08-16T10:25:04;33.40;73.30
41664;DHT22;27353;50.906;7.248;2022-08-16T10:27:30;33.30;73.30
41664;DHT22;27353;50.906;7.248;2022-08-16T10:29:58;34.20;74.30
41664;DHT22;27353;50.906;7.248;2022-08-16T10:32:24;34.00;70.50
41664;DHT22;27353;50.906;7.248;2022-08-16T10:34:49;33.00;71.40
41664;DHT22;27353;50.906;7.248;2022-08-16T10:37:15;33.20;70.80
41664;DHT22;27353;50.906;7.248;2022-08-16T10:39:40;32.90;72.40
41664;DHT22;27353;50.906;7.248;2022-08-16T10:42:06;33.00;72.30
41664;DHT22;27353;50.906;7.248;2022-08-16T10:44:32;33.50;72.10
41664;DHT22;27353;50.906;7.248;2022-08-16T10:46:58;34.00;72.90
41664;DHT22;27353;50.906;7.248;2022-08-16T10:49:23;34.40;71.00
41664;DHT22;27353;50.906;7.248;2022-08-16T10:51:49;34.60;69.80
41664;DHT22;27353;50.906;7.248;2022-08-16T10:54:15;35.00;72.40
41664;DHT22;27353;50.906;7.248;2022-08-16T10:56:41;34.90;68.20
41664;DHT22;27353;50.906;7.248;2022-08-16T10:59:08;35.10;70.00
41664;DHT22;27353;50.906;7.248;2022-08-16T11:01:35;34.30;69.70
41664;DHT22;27353;50.906;7.248;2022-08-16T11:04:01;33.60;69.10
41664;DHT22;27353;50.906;7.248;2022-08-16T11:06:27;33.60;70.30
41664;DHT22;27353;50.906;7.248;2022-08-16T11:08:53;33.20;70.50
41664;DHT22;27353;50.906;7.248;2022-08-16T11:11:19;33.30;70.80
41664;DHT22;27353;50.906;7.248;2022-08-16T11:13:45;33.60;72.20
41664;DHT22;27353;50.906;7.248;2022-08-16T11:16:12;34.00;69.40
41664;DHT22;27353;50.906;7.248;2022-08-16T11:18:38;34.60;67.20
41664;DHT22;27353;50.906;7.248;2022-08-16T11:21:05;34.70;67.30
41664;DHT22;27353;50.906;7.248;2022-08-16T11:23:30;34.10;67.30
41664;DHT22;27353;50.906;7.248;2022-08-16T11:25:56;34.20;68.00
41664;DHT22;27353;50.906;7.248;2022-08-16T11:28:23;34.90;64.20
41664;DHT22;27353;50.906;7.248;2022-08-16T11:30:48;35.10;63.10
41664;DHT22;27353;50.906;7.248;2022-08-16T11:33:14;34.90;65.10
41664;DHT22;27353;50.906;7.248;2022-08-16T11:35:40;35.30;63.80
41664;DHT22;27353;50.906;7.248;2022-08-16T11:38:13;35.60;63.00
41664;DHT22;27353;50.906;7.248;2022-08-16T11:40:51;35.40;64.60
41664;DHT22;27353;50.906;7.248;2022-08-16T11:43:22;35.40;65.00
41664;DHT22;27353;50.906;7.248;2022-08-16T11:45:49;35.80;64.40
41664;DHT22;27353;50.906;7.248;2022-08-16T11:48:16;35.80;62.20
41664;DHT22;27353;50.906;7.248;2022-08-16T11:50:44;35.70;63.40
41664;DHT22;27353;50.906;7.248;2022-08-16T11:53:10;35.80;62.70
41664;DHT22;27353;50.906;7.248;2022-08-16T11:55:37;35.20;61.40
41664;DHT22;27353;50.906;7.248;2022-08-16T11:58:04;34.30;63.90
41664;DHT22;27353;50.906;7.248;2022-08-16T12:00:31;34.90;62.80
41664;DHT22;27353;50.906;7.248;2022-08-16T12:02:57;35.40;64.00
41664;DHT22;27353;50.906;7.248;2022-08-16T12:05:23;35.50;62.30
41664;DHT22;27353;50.906;7.248;2022-08-16T12:07:50;34.90;59.30
41664;DHT22;27353;50.906;7.248;2022-08-16T12:10:17;34.80;59.40
41664;DHT22;27353;50.906;7.248;2022-08-16T12:12:44;35.10;60.90
41664;DHT22;27353;50.906;7.248;2022-08-16T12:15:12;35.50;58.30
41664;DHT22;27353;50.906;7.248;2022-08-16T12:17:39;35.10;59.20
41664;DHT22;27353;50.906;7.248;2022-08-16T12:20:15;35.10;57.50
41664;DHT22;27353;50.906;7.248;2022-08-16T12:22:41;33.70;59.50
41664;DHT22;27353;50.906;7.248;2022-08-16T12:25:10;33.30;62.20
41664;DHT22;27353;50.906;7.248;2022-08-16T12:27:37;32.60;63.30
41664;DHT22;27353;50.906;7.248;2022-08-16T12:30:04;33.30;67.30
41664;DHT22;27353;50.906;7.248;2022-08-16T12:32:30;33.80;63.60
41664;DHT22;27353;50.906;7.248;2022-08-16T12:34:55;34.20;63.40
41664;DHT22;27353;50.906;7.248;2022-08-16T12:37:22;34.10;63.10
41664;DHT22;27353;50.906;7.248;2022-08-16T12:39:49;34.30;63.10
41664;DHT22;27353;50.906;7.248;2022-08-16T12:42:15;34.90;63.90
41664;DHT22;27353;50.906;7.248;2022-08-16T12:44:44;34.40;61.60
41664;DHT22;27353;50.906;7.248;2022-08-16T12:47:10;34.50;59.80
41664;DHT22;27353;50.906;7.248;2022-08-16T12:49:55;33.60;62.10
41664;DHT22;27353;50.906;7.248;2022-08-16T12:52:21;33.60;62.40
41664;DHT22;27353;50.906;7.248;2022-08-16T12:54:47;33.70;62.50
41664;DHT22;27353;50.906;7.248;2022-08-16T12:57:12;33.70;61.40
41664;DHT22;27353;50.906;7.248;2022-08-16T12:59:38;32.90;61.20
41664;DHT22;27353;50.906;7.248;2022-08-16T13:02:05;33.30;60.70
41664;DHT22;27353;50.906;7.248;2022-08-16T13:04:32;33.60;59.40
41664;DHT22;27353;50.906;7.248;2022-08-16T13:07:00;33.50;56.80
41664;DHT22;27353;50.906;7.248;2022-08-16T13:09:26;33.40;58.20
41664;DHT22;27353;50.906;7.248;2022-08-16T13:12:05;33.60;58.10
41664;DHT22;27353;50.906;7.248;2022-08-16T13:14:41;33.80;61.80
41664;DHT22;27353;50.906;7.248;2022-08-16T13:17:11;34.00;60.30
41664;DHT22;27353;50.906;7.248;2022-08-16T13:19:38;33.80;62.00
41664;DHT22;27353;50.906;7.248;2022-08-16T13:22:04;33.90;60.30
41664;DHT22;27353;50.906;7.248;2022-08-16T13:24:29;33.60;58.90
41664;DHT22;27353;50.906;7.248;2022-08-16T13:26:55;33.60;61.40
41664;DHT22;27353;50.906;7.248;2022-08-16T13:29:21;33.80;61.70
41664;DHT22;27353;50.906;7.248;2022-08-16T13:31:46;33.90;60.50
41664;DHT22;27353;50.906;7.248;2022-08-16T13:34:12;33.80;60.80
41664;DHT22;27353;50.906;7.248;2022-08-16T13:36:37;34.00;61.30
41664;DHT22;27353;50.906;7.248;2022-08-16T13:39:04;33.70;60.60
41664;DHT22;27353;50.906;7.248;2022-08-16T13:41:30;33.90;59.90
41664;DHT22;27353;50.906;7.248;2022-08-16T13:43:57;33.40;58.20
41664;DHT22;27353;50.906;7.248;2022-08-16T13:46:23;33.40;58.70
41664;DHT22;27353;50.906;7.248;2022-08-16T13:48:50;33.50;61.40
41664;DHT22;27353;50.906;7.248;2022-08-16T13:51:20;33.50;56.90
41664;DHT22;27353;50.906;7.248;2022-08-16T13:53:51;33.50;59.70
41664;DHT22;27353;50.906;7.248;2022-08-16T13:56:17;33.20;59.20
41664;DHT22;27353;50.906;7.248;2022-08-16T13:58:43;33.40;59.30
41664;DHT22;27353;50.906;7.248;2022-08-16T14:01:10;33.00;59.40
41664;DHT22;27353;50.906;7.248;2022-08-16T14:03:39;33.00;58.70
41664;DHT22;27353;50.906;7.248;2022-08-16T14:06:06;33.10;58.50
41664;DHT22;27353;50.906;7.248;2022-08-16T14:08:32;32.80;58.10
41664;DHT22;27353;50.906;7.248;2022-08-16T14:10:58;32.90;59.60
41664;DHT22;27353;50.906;7.248;2022-08-16T14:13:24;33.20;59.10
41664;DHT22;27353;50.906;7.248;2022-08-16T14:15:50;33.20;57.80
41664;DHT22;27353;50.906;7.248;2022-08-16T14:18:16;33.20;59.20
41664;DHT22;27353;50.906;7.248;2022-08-16T14:20:41;33.40;58.00
41664;DHT22;27353;50.906;7.248;2022-08-16T14:23:07;33.20;57.70
41664;DHT22;27353;50.906;7.248;2022-08-16T14:25:33;32.90;58.50
41664;DHT22;27353;50.906;7.248;2022-08-16T14:27:59;32.70;58.90
41664;DHT22;27353;50.906;7.248;2022-08-16T14:30:25;32.70;58.30
41664;DHT22;27353;50.906;7.248;2022-08-16T14:32:51;32.60;58.40
41664;DHT22;27353;50.906;7.248;2022-08-16T14:35:25;32.70;58.70
41664;DHT22;27353;50.906;7.248;2022-08-16T14:37:51;32.80;57.50
41664;DHT22;27353;50.906;7.248;2022-08-16T14:40:17;32.90;57.80
41664;DHT22;27353;50.906;7.248;2022-08-16T14:42:44;32.30;57.60
41664;DHT22;27353;50.906;7.248;2022-08-16T14:45:13;32.10;58.50
41664;DHT22;27353;50.906;7.248;2022-08-16T14:47:39;31.60;57.50
41664;DHT22;27353;50.906;7.248;2022-08-16T14:50:07;31.70;60.00
41664;DHT22;27353;50.906;7.248;2022-08-16T14:52:34;31.60;59.00
41664;DHT22;27353;50.906;7.248;2022-08-16T14:54:59;31.80;58.10
41664;DHT22;27353;50.906;7.248;2022-08-16T14:57:25;32.10;58.90
41664;DHT22;27353;50.906;7.248;2022-08-16T14:59:51;32.30;58.70
41664;DHT22;27353;50.906;7.248;2022-08-16T15:02:20;32.10;57.30
41664;DHT22;27353;50.906;7.248;2022-08-16T15:04:46;32.10;58.40
41664;DHT22;27353;50.906;7.248;2022-08-16T15:07:12;31.90;58.10
41664;DHT22;27353;50.906;7.248;2022-08-16T15:09:42;31.80;58.30
41664;DHT22;27353;50.906;7.248;2022-08-16T15:12:14;31.70;58.40
41664;DHT22;27353;50.906;7.248;2022-08-16T15:14:42;31.80;59.10
41664;DHT22;27353;50.906;7.248;2022-08-16T15:17:08;31.90;58.30
41664;DHT22;27353;50.906;7.248;2022-08-16T15:19:34;31.80;58.20
41664;DHT22;27353;50.906;7.248;2022-08-16T15:22:01;31.80;59.10
41664;DHT22;27353;50.906;7.248;2022-08-16T15:24:27;31.40;59.30
41664;DHT22;27353;50.906;7.248;2022-08-16T15:26:53;31.40;58.90
41664;DHT22;27353;50.906;7.248;2022-08-16T15:29:19;31.30;60.90